createdAt,value
2019-02-19T00:01:43.186Z,15.14
2019-02-19T00:04:11.482Z,14.93
2019-02-19T00:06:41.076Z,15.08
2019-02-19T00:09:09.367Z,14.74
2019-02-19T00:11:37.665Z,14.96
2019-02-19T00:14:05.936Z,15.21
2019-02-19T00:16:34.286Z,15.34
2019-02-19T00:19:02.635Z,14.74
2019-02-19T00:21:31.186Z,14.48
2019-02-19T00:24:02.295Z,14.75
2019-02-19T00:26:30.557Z,14.91
2019-02-19T00:28:58.853Z,14.93
2019-02-19T00:31:28.670Z,15.20
2019-02-19T00:33:58.572Z,14.92
2019-02-19T00:36:26.876Z,14.91
2019-02-19T00:38:55.170Z,14.57
2019-02-19T00:41:23.496Z,14.63
2019-02-19T00:43:53.389Z,14.61
2019-02-19T00:46:21.667Z,14.52
2019-02-19T00:48:50.009Z,14.82
2019-02-19T00:51:18.278Z,14.46
2019-02-19T00:53:46.557Z,14.39
2019-02-19T00:56:14.828Z,14.84
2019-02-19T00:58:43.138Z,14.84
2019-02-19T01:01:11.429Z,14.93
2019-02-19T01:03:39.687Z,14.59
2019-02-19T01:06:07.944Z,14.93
2019-02-19T01:08:36.220Z,14.69
2019-02-19T01:11:04.543Z,15.26
2019-02-19T01:13:32.810Z,14.86
2019-02-19T01:16:01.092Z,14.67
2019-02-19T01:18:29.397Z,14.95
2019-02-19T01:20:57.667Z,15.17
2019-02-19T01:23:28.347Z,14.60
2019-02-19T01:25:56.610Z,15.03
2019-02-19T01:28:24.885Z,14.93
2019-02-19T01:30:56.384Z,14.93
2019-02-19T01:33:24.658Z,14.75
2019-02-19T01:35:52.952Z,15.14
2019-02-19T01:38:21.216Z,15.77
2019-02-19T01:40:49.493Z,14.97
2019-02-19T01:43:17.756Z,14.88
2019-02-19T01:45:46.597Z,15.51
2019-02-19T01:48:14.848Z,15.62
2019-02-19T01:50:43.122Z,15.21
2019-02-19T01:53:11.382Z,15.37
2019-02-19T01:55:39.638Z,15.59
2019-02-19T01:58:07.908Z,14.83
2019-02-19T02:00:36.367Z,15.61
2019-02-19T02:03:05.091Z,14.71
2019-02-19T02:05:33.361Z,15.12
2019-02-19T02:08:01.649Z,14.46
2019-02-19T02:10:29.910Z,15.37
2019-02-19T02:12:58.193Z,14.57
2019-02-19T02:15:26.466Z,14.94
2019-02-19T02:17:54.745Z,14.77
2019-02-19T02:20:23.037Z,15.44
2019-02-19T02:22:51.291Z,15.22
2019-02-19T02:25:19.542Z,14.96
2019-02-19T02:27:48.089Z,14.11
2019-02-19T02:30:16.365Z,14.29
2019-02-19T02:32:44.652Z,14.22
2019-02-19T02:35:13.099Z,14.34
2019-02-19T02:37:41.370Z,14.97
2019-02-19T02:40:09.983Z,14.86
2019-02-19T02:42:38.312Z,14.65
2019-02-19T02:45:06.642Z,14.59
2019-02-19T02:47:35.022Z,14.66
2019-02-19T02:50:03.751Z,14.50
2019-02-19T02:52:32.024Z,14.46
2019-02-19T02:55:00.423Z,15.08
2019-02-19T02:57:28.699Z,14.22
2019-02-19T02:59:56.969Z,14.58
2019-02-19T03:02:25.252Z,14.83
2019-02-19T03:04:53.515Z,15.19
2019-02-19T03:07:23.438Z,14.84
2019-02-19T03:09:51.714Z,14.95
2019-02-19T03:12:19.991Z,14.67
2019-02-19T03:14:48.254Z,14.67
2019-02-19T03:20:17.910Z,14.40
2019-02-19T03:22:46.172Z,14.80
2019-02-19T03:25:14.440Z,14.78
2019-02-19T03:27:42.705Z,14.81
2019-02-19T03:30:11.206Z,14.53
2019-02-19T03:32:39.458Z,14.69
2019-02-19T03:35:07.793Z,14.20
2019-02-19T03:37:36.039Z,14.77
2019-02-19T03:40:07.531Z,14.54
2019-02-19T03:42:35.467Z,14.77
2019-02-19T03:45:06.025Z,14.24
2019-02-19T03:47:34.414Z,14.30
2019-02-19T03:50:02.862Z,13.91
2019-02-19T03:52:31.952Z,14.23
2019-02-19T03:55:00.380Z,14.46
2019-02-19T03:57:28.680Z,14.45
2019-02-19T04:00:00.342Z,14.92
2019-02-19T04:02:28.583Z,14.27
2019-02-19T04:04:56.915Z,14.24
2019-02-19T04:07:25.192Z,13.62
2019-02-19T04:09:53.534Z,14.09
2019-02-19T04:12:21.799Z,14.33
2019-02-19T04:14:50.052Z,14.68
2019-02-19T04:17:18.326Z,14.22
2019-02-19T04:19:46.601Z,14.25
2019-02-19T04:22:14.863Z,14.02
2019-02-19T04:24:43.113Z,14.05
2019-02-19T04:27:11.368Z,13.38
2019-02-19T04:29:42.693Z,14.18
2019-02-19T04:32:10.948Z,14.05
2019-02-19T04:34:39.207Z,14.20
2019-02-19T04:37:07.461Z,14.15
2019-02-19T04:39:35.744Z,13.69
2019-02-19T04:42:04.262Z,14.42
2019-02-19T04:44:32.783Z,14.08
2019-02-19T04:47:01.437Z,14.14
2019-02-19T04:49:29.675Z,14.57
2019-02-19T04:51:57.953Z,14.27
2019-02-19T04:54:26.217Z,14.38
2019-02-19T04:56:54.466Z,14.22
2019-02-19T04:59:22.745Z,14.20
2019-02-19T05:01:51.014Z,13.88
2019-02-19T05:04:19.309Z,14.40
2019-02-19T05:06:47.571Z,14.75
2019-02-19T05:09:15.844Z,14.62
2019-02-19T05:11:44.116Z,14.25
2019-02-19T05:14:12.370Z,13.91
2019-02-19T05:16:41.286Z,14.40
2019-02-19T05:19:09.674Z,14.13
2019-02-19T05:21:48.213Z,14.80
2019-02-19T05:24:16.476Z,14.56
2019-02-19T05:26:44.742Z,14.28
2019-02-19T05:29:12.995Z,14.10
2019-02-19T05:31:41.264Z,14.83
2019-02-19T05:34:09.525Z,14.08
2019-02-19T05:36:37.802Z,14.61
2019-02-19T05:39:06.343Z,14.53
2019-02-19T05:41:34.616Z,15.49
2019-02-19T05:44:02.876Z,14.58
2019-02-19T05:46:31.145Z,14.84
2019-02-19T05:48:59.416Z,15.40
2019-02-19T05:51:27.673Z,14.15
2019-02-19T05:53:56.370Z,14.87
2019-02-19T05:56:24.573Z,14.62
2019-02-19T05:58:52.842Z,14.97
2019-02-19T06:01:21.114Z,15.24
2019-02-19T06:03:49.443Z,15.17
2019-02-19T06:06:17.707Z,15.79
2019-02-19T06:08:46.001Z,15.78
2019-02-19T06:11:14.295Z,14.73
2019-02-19T06:13:42.573Z,14.63
2019-02-19T06:16:10.860Z,14.54
2019-02-19T06:18:39.192Z,14.77
2019-02-19T06:21:07.986Z,14.78
2019-02-19T06:23:36.760Z,14.71
2019-02-19T06:26:05.039Z,14.55
2019-02-19T06:28:33.351Z,14.23
2019-02-19T06:31:01.631Z,15.11
2019-02-19T06:33:29.963Z,14.54
2019-02-19T06:35:58.336Z,14.20
2019-02-19T06:38:26.653Z,14.33
2019-02-19T06:41:02.783Z,14.77
2019-02-19T06:43:34.078Z,14.47
2019-02-19T06:46:02.741Z,14.23
2019-02-19T06:48:31.140Z,13.71
2019-02-19T06:50:59.554Z,14.15
2019-02-19T06:53:27.886Z,14.34
2019-02-19T06:55:56.201Z,14.34
2019-02-19T06:58:24.527Z,13.27
2019-02-19T07:00:52.844Z,13.29
2019-02-19T07:03:25.508Z,13.80
2019-02-19T07:05:53.951Z,13.29
2019-02-19T07:08:22.296Z,13.50
2019-02-19T07:10:50.621Z,12.98
2019-02-19T07:13:18.964Z,13.88
2019-02-19T07:15:47.255Z,13.28
2019-02-19T07:18:15.661Z,13.93
2019-02-19T07:20:43.945Z,13.39
2019-02-19T07:23:12.270Z,13.66
2019-02-19T07:25:40.603Z,13.70
2019-02-19T07:28:09.026Z,13.83
2019-02-19T07:30:37.455Z,13.40
2019-02-19T07:33:05.847Z,14.10
2019-02-19T07:35:34.179Z,14.21
2019-02-19T07:38:02.585Z,14.36
2019-02-19T07:40:30.937Z,13.62
2019-02-19T07:43:00.752Z,13.62
2019-02-19T07:45:29.315Z,13.58
2019-02-19T07:47:57.593Z,13.49
2019-02-19T07:50:26.059Z,13.56
2019-02-19T07:52:54.429Z,14.23
2019-02-19T07:55:22.805Z,13.99
2019-02-19T07:57:51.219Z,14.29
2019-02-19T08:00:19.661Z,13.89
2019-02-19T08:02:47.959Z,13.64
2019-02-19T08:05:16.339Z,13.92
2019-02-19T08:07:44.668Z,13.90
2019-02-19T08:10:14.483Z,13.82
2019-02-19T08:12:42.818Z,13.78
2019-02-19T08:15:11.934Z,13.51
2019-02-19T08:17:40.354Z,13.53
2019-02-19T08:20:16.010Z,13.64
2019-02-19T08:22:40.260Z,13.96
2019-02-19T08:25:08.650Z,13.76
2019-02-19T08:27:36.986Z,13.85
2019-02-19T08:30:08.255Z,13.21
2019-02-19T08:32:36.556Z,13.85
2019-02-19T08:35:06.434Z,13.51
2019-02-19T08:37:34.750Z,13.56
2019-02-19T08:40:03.152Z,13.90
2019-02-19T08:42:31.608Z,13.48
2019-02-19T08:45:00.962Z,13.42
2019-02-19T08:47:29.316Z,13.59
2019-02-19T08:49:58.939Z,13.32
2019-02-19T08:52:27.270Z,13.83
2019-02-19T08:54:55.552Z,13.26
2019-02-19T08:57:23.966Z,12.87
2019-02-19T08:59:52.319Z,13.09
2019-02-19T09:02:20.754Z,13.34
2019-02-19T09:04:49.255Z,13.08
2019-02-19T09:07:17.591Z,12.84
2019-02-19T09:09:47.564Z,12.81
2019-02-19T09:12:15.872Z,13.55
2019-02-19T09:14:44.203Z,13.29
2019-02-19T09:17:12.633Z,13.08
2019-02-19T09:19:41.044Z,13.24
2019-02-19T09:22:09.530Z,12.83
2019-02-19T09:24:37.867Z,12.61
2019-02-19T09:27:06.259Z,12.61
2019-02-19T09:29:34.681Z,13.51
2019-02-19T09:32:03.058Z,14.92
2019-02-19T09:34:31.393Z,12.79
2019-02-19T09:36:59.837Z,13.36
2019-02-19T09:39:28.143Z,13.71
2019-02-19T09:41:56.497Z,12.36
2019-02-19T09:44:25.034Z,13.15
2019-02-19T09:46:53.377Z,12.81
2019-02-19T09:49:21.703Z,13.45
2019-02-19T09:51:50.079Z,13.57
2019-02-19T09:54:18.402Z,13.05
2019-02-19T09:56:46.713Z,13.91
2019-02-19T09:59:15.133Z,14.10
2019-02-19T10:01:43.436Z,13.54
2019-02-19T10:04:11.757Z,13.78
2019-02-19T10:06:41.736Z,13.38
2019-02-19T10:09:10.065Z,14.00
2019-02-19T10:11:38.435Z,12.99
2019-02-19T10:14:06.944Z,12.71
2019-02-19T10:16:41.453Z,13.75
2019-02-19T10:19:05.372Z,14.15
2019-02-19T10:21:33.696Z,14.43
2019-02-19T10:24:02.021Z,13.58
2019-02-19T10:26:30.374Z,13.51
2019-02-19T10:29:07.209Z,13.57
2019-02-19T10:31:47.550Z,13.07
2019-02-19T10:34:15.889Z,13.77
2019-02-19T10:36:44.221Z,13.26
2019-02-19T10:39:12.744Z,14.23
2019-02-19T10:41:41.699Z,14.21
2019-02-19T10:44:09.992Z,14.63
2019-02-19T10:46:38.362Z,14.02
2019-02-19T10:49:06.717Z,13.31
2019-02-19T10:51:35.257Z,12.87
2019-02-19T10:54:03.487Z,13.45
2019-02-19T10:56:33.803Z,13.06
2019-02-19T10:59:02.195Z,13.41
2019-02-19T11:01:30.716Z,12.71
2019-02-19T11:03:59.042Z,13.10
2019-02-19T11:06:27.302Z,13.61
2019-02-19T11:08:55.748Z,13.63
2019-02-19T11:11:24.036Z,14.03
2019-02-19T11:13:52.668Z,13.29
2019-02-19T11:16:21.094Z,13.27
2019-02-19T11:18:51.839Z,13.55
2019-02-19T11:21:20.375Z,14.01
2019-02-19T11:23:48.688Z,13.67
2019-02-19T11:26:21.717Z,13.93
2019-02-19T11:28:50.010Z,15.41
2019-02-19T11:31:18.405Z,15.43
2019-02-19T11:33:46.708Z,14.88
2019-02-19T11:36:15.021Z,14.95
2019-02-19T11:38:43.360Z,14.70
2019-02-19T11:41:19.153Z,15.84
2019-02-19T11:43:47.526Z,15.37
2019-02-19T11:46:15.840Z,15.10
2019-02-19T11:48:44.139Z,15.11
2019-02-19T11:51:12.438Z,15.63
2019-02-19T11:53:40.751Z,15.23
2019-02-19T11:56:09.088Z,14.87
2019-02-19T11:58:37.366Z,15.35
2019-02-19T12:01:06.183Z,15.08
2019-02-19T12:03:34.508Z,15.36
2019-02-19T12:06:02.841Z,15.62
2019-02-19T12:08:38.894Z,16.27
2019-02-19T12:11:01.294Z,17.39
2019-02-19T12:13:29.590Z,16.54
2019-02-19T12:15:57.982Z,19.04
2019-02-19T12:18:26.266Z,21.92
2019-02-19T12:20:54.562Z,20.26
2019-02-19T12:23:22.920Z,18.03
2019-02-19T12:25:53.712Z,18.19
2019-02-19T12:28:23.219Z,20.04
2019-02-19T12:30:51.507Z,20.37
2019-02-19T12:33:19.979Z,20.48
2019-02-19T12:35:48.247Z,19.11
2019-02-19T12:38:16.555Z,18.22
2019-02-19T12:40:44.979Z,20.06
2019-02-19T12:43:13.282Z,20.04
2019-02-19T12:45:41.663Z,20.85
2019-02-19T12:48:10.008Z,23.22
2019-02-19T12:50:38.327Z,21.52
2019-02-19T12:53:06.595Z,23.61
2019-02-19T12:55:34.883Z,21.86
2019-02-19T12:58:03.268Z,23.10
2019-02-19T13:00:32.130Z,23.65
2019-02-19T13:03:00.639Z,22.15
2019-02-19T13:05:29.192Z,23.61
2019-02-19T13:07:57.511Z,22.30
2019-02-19T13:10:25.916Z,22.96
2019-02-19T13:12:54.364Z,21.65
2019-02-19T13:15:22.956Z,20.20
2019-02-19T13:17:51.366Z,19.40
2019-02-19T13:20:19.641Z,22.10
2019-02-19T13:22:48.073Z,22.55
2019-02-19T13:25:16.737Z,24.77
2019-02-19T13:27:45.615Z,23.84
2019-02-19T13:30:16.848Z,22.83
2019-02-19T13:32:45.153Z,23.34
2019-02-19T13:35:14.180Z,23.28
2019-02-19T13:37:43.356Z,24.53
2019-02-19T13:40:13.908Z,24.87
2019-02-19T13:42:42.563Z,23.93
2019-02-19T13:45:13.884Z,23.92
2019-02-19T13:47:43.123Z,23.90
2019-02-19T13:50:17.141Z,22.61
2019-02-19T13:52:47.076Z,22.44
2019-02-19T13:55:17.170Z,22.00
2019-02-19T13:57:45.529Z,24.39
2019-02-19T14:00:15.569Z,23.56
2019-02-19T14:02:44.754Z,22.74
2019-02-19T14:05:13.120Z,23.85
2019-02-19T14:07:41.423Z,22.18
2019-02-19T14:10:11.354Z,21.17
2019-02-19T14:12:39.700Z,21.73
2019-02-19T14:15:11.990Z,23.16
2019-02-19T14:17:40.406Z,25.20
2019-02-19T14:20:10.483Z,23.55
2019-02-19T14:22:43.241Z,22.94
2019-02-19T14:25:31.680Z,20.08
2019-02-19T14:28:10.810Z,21.26
2019-02-19T14:30:40.781Z,22.52
2019-02-19T14:33:10.763Z,21.43
2019-02-19T14:35:40.685Z,22.10
2019-02-19T14:38:16.952Z,21.99
2019-02-19T14:41:05.116Z,20.63
2019-02-19T14:43:41.525Z,22.51
2019-02-19T14:46:23.299Z,24.84
2019-02-19T14:49:09.179Z,22.47
2019-02-19T14:51:55.588Z,21.16
2019-02-19T14:54:40.653Z,22.21
2019-02-19T14:57:19.580Z,22.53
2019-02-19T15:00:10.772Z,20.80
2019-02-19T15:02:59.642Z,23.41
2019-02-19T15:05:45.584Z,22.88
2019-02-19T15:08:33.564Z,22.47
2019-02-19T15:11:05.940Z,24.20
2019-02-19T15:13:48.176Z,22.27
2019-02-19T15:16:18.181Z,21.78
2019-02-19T15:19:04.293Z,20.01
2019-02-19T15:21:52.362Z,19.15
2019-02-19T15:24:22.367Z,18.22
2019-02-19T15:26:52.321Z,18.27
2019-02-19T15:29:34.222Z,18.45
2019-02-19T15:32:07.319Z,19.00
2019-02-19T15:34:37.245Z,19.60
2019-02-19T15:37:16.492Z,18.61
2019-02-19T15:39:58.375Z,18.43
2019-02-19T15:42:28.542Z,18.97
2019-02-19T15:45:16.670Z,19.62
2019-02-19T15:48:01.916Z,19.80
2019-02-19T15:50:48.052Z,18.98
2019-02-19T15:56:17.633Z,19.46
2019-02-19T15:58:55.992Z,19.24
2019-02-19T16:01:30.658Z,17.71
2019-02-19T16:04:08.131Z,18.82
2019-02-19T16:06:54.190Z,19.06
2019-02-19T16:09:32.934Z,19.11
2019-02-19T16:12:05.471Z,18.46
2019-02-19T16:14:43.932Z,18.52
2019-02-19T16:17:19.861Z,18.34
2019-02-19T16:19:56.790Z,17.43
2019-02-19T16:22:24.556Z,18.06
2019-02-19T16:28:04.833Z,18.57
2019-02-19T16:30:43.735Z,18.04
2019-02-19T16:33:30.263Z,17.69
2019-02-19T16:36:03.170Z,17.89
2019-02-19T16:38:38.822Z,18.30
2019-02-19T16:41:08.830Z,17.09
2019-02-19T16:43:44.827Z,17.34
2019-02-19T16:46:17.602Z,18.30
2019-02-19T16:48:50.205Z,18.02
2019-02-19T16:51:28.727Z,18.07
2019-02-19T16:54:04.576Z,17.51
2019-02-19T16:56:34.611Z,17.99
2019-02-19T16:59:07.966Z,17.75
2019-02-19T17:01:54.302Z,17.47
2019-02-19T17:04:27.275Z,16.98
2019-02-19T17:06:57.545Z,17.00
2019-02-19T17:09:27.600Z,17.49
2019-02-19T17:11:57.600Z,17.04
2019-02-19T17:14:39.379Z,16.49
2019-02-19T17:17:15.206Z,16.12
2019-02-19T17:22:35.491Z,16.60
2019-02-19T17:25:16.185Z,16.33
2019-02-19T17:28:09.792Z,16.42
2019-02-19T17:30:55.966Z,16.03
2019-02-19T17:33:25.953Z,16.21
2019-02-19T17:36:14.904Z,15.95
2019-02-19T17:38:44.803Z,15.55
2019-02-19T17:41:31.337Z,15.74
2019-02-19T17:44:10.374Z,15.87
2019-02-19T17:46:45.998Z,15.94
2019-02-19T17:49:15.952Z,15.07
2019-02-19T17:51:48.829Z,15.63
2019-02-19T17:54:19.435Z,16.09
2019-02-19T17:57:06.162Z,15.98
2019-02-19T17:59:41.696Z,15.93
2019-02-19T18:02:14.694Z,15.31
2019-02-19T18:04:50.102Z,16.06
2019-02-19T18:07:35.048Z,15.98
2019-02-19T18:10:05.295Z,16.14
2019-02-19T18:12:41.227Z,16.20
2019-02-19T18:15:26.724Z,16.79
2019-02-19T18:18:02.335Z,15.34
2019-02-19T18:20:30.707Z,15.49
2019-02-19T18:22:59.036Z,15.86
2019-02-19T18:25:27.521Z,16.07
2019-02-19T18:27:55.889Z,15.67
2019-02-19T18:30:24.266Z,16.47
2019-02-19T18:32:52.580Z,15.64
2019-02-19T18:35:21.132Z,15.46
2019-02-19T18:41:18.357Z,15.61
2019-02-19T18:47:17.089Z,16.67
2019-02-19T18:49:48.458Z,17.11
2019-02-19T18:52:16.718Z,16.04
2019-02-19T18:54:45.023Z,15.91
2019-02-19T18:57:13.313Z,16.55
2019-02-19T18:59:41.647Z,16.19
2019-02-19T19:02:09.934Z,15.84
2019-02-19T19:04:38.567Z,16.32
2019-02-19T19:07:06.869Z,15.74
2019-02-19T19:09:35.171Z,15.11
2019-02-19T19:12:03.529Z,16.47
2019-02-19T19:14:31.833Z,15.84
2019-02-19T19:17:00.126Z,16.52
2019-02-19T19:19:28.422Z,16.02
2019-02-19T19:21:56.704Z,15.91
2019-02-19T19:24:25.007Z,15.76
2019-02-19T19:26:53.424Z,15.23
2019-02-19T19:29:21.710Z,15.92
2019-02-19T19:31:50.222Z,14.53
2019-02-19T19:34:18.657Z,14.86
2019-02-19T19:36:46.937Z,15.23
2019-02-19T19:39:15.324Z,14.84
2019-02-19T19:41:43.657Z,15.55
2019-02-19T19:44:11.993Z,15.78
2019-02-19T19:46:41.182Z,16.27
2019-02-19T19:49:09.518Z,15.72
2019-02-19T19:51:37.844Z,15.66
2019-02-19T19:54:06.129Z,14.57
2019-02-19T19:56:34.413Z,14.68
2019-02-19T19:59:02.717Z,15.03
2019-02-19T20:01:31.163Z,15.43
2019-02-19T20:03:59.424Z,14.78
2019-02-19T20:06:27.823Z,15.88
2019-02-19T20:08:56.122Z,15.40
2019-02-19T20:11:24.409Z,16.13
2019-02-19T20:13:52.791Z,15.69
2019-02-19T20:16:21.521Z,15.20
2019-02-19T20:18:49.962Z,15.17
2019-02-19T20:21:26.488Z,15.24
2019-02-19T20:23:49.983Z,14.41
2019-02-19T20:26:19.162Z,14.81
2019-02-19T20:28:47.916Z,14.69
2019-02-19T20:31:16.874Z,14.91
2019-02-19T20:33:45.660Z,14.74
2019-02-19T20:36:13.913Z,15.17
2019-02-19T20:38:42.670Z,15.26
2019-02-19T20:41:11.096Z,14.29
2019-02-19T20:43:39.375Z,14.83
2019-02-19T20:46:08.378Z,14.17
2019-02-19T20:48:37.001Z,14.56
2019-02-19T20:51:05.319Z,13.97
2019-02-19T20:53:33.645Z,14.65
2019-02-19T20:56:02.528Z,14.44
2019-02-19T20:58:30.821Z,14.47
2019-02-19T21:00:59.125Z,14.42
2019-02-19T21:03:27.426Z,14.00
2019-02-19T21:05:55.708Z,14.14
2019-02-19T21:08:24.063Z,13.57
2019-02-19T21:10:53.907Z,13.38
2019-02-19T21:13:22.406Z,14.13
2019-02-19T21:15:50.729Z,14.22
2019-02-19T21:18:20.320Z,13.77
2019-02-19T21:20:48.616Z,14.11
2019-02-19T21:23:17.158Z,14.24
2019-02-19T21:25:45.569Z,14.28
2019-02-19T21:28:13.934Z,13.75
2019-02-19T21:30:42.437Z,13.68
2019-02-19T21:33:11.186Z,14.42
2019-02-19T21:35:39.515Z,13.76
2019-02-19T21:38:10.939Z,14.52
2019-02-19T21:40:39.454Z,14.47
2019-02-19T21:43:07.855Z,14.14
2019-02-19T21:45:37.562Z,13.89
2019-02-19T21:48:05.888Z,13.27
2019-02-19T21:50:34.278Z,13.59
2019-02-19T21:53:02.588Z,14.56
2019-02-19T21:55:30.920Z,13.93
2019-02-19T21:57:59.797Z,13.63
2019-02-19T22:00:28.292Z,14.66
2019-02-19T22:02:56.703Z,13.79
2019-02-19T22:05:25.050Z,13.75
2019-02-19T22:07:53.339Z,14.05
2019-02-19T22:10:21.679Z,13.96
2019-02-19T22:12:50.045Z,13.67
2019-02-19T22:15:18.318Z,13.89
2019-02-19T22:17:46.624Z,13.53
2019-02-19T22:20:31.310Z,14.14
2019-02-19T22:22:59.636Z,14.27
2019-02-19T22:25:28.236Z,14.86
2019-02-19T22:27:56.557Z,15.25
2019-02-19T22:30:24.833Z,13.42
2019-02-19T22:32:53.218Z,13.55
2019-02-19T22:35:21.599Z,13.92
2019-02-19T22:37:49.922Z,13.79
2019-02-19T22:40:18.200Z,13.26
2019-02-19T22:42:46.537Z,14.08
2019-02-19T22:45:14.964Z,13.98
2019-02-19T22:47:43.243Z,14.81
2019-02-19T22:50:11.646Z,14.03
2019-02-19T22:52:39.909Z,13.66
2019-02-19T22:55:23.460Z,14.56
2019-02-19T22:57:51.876Z,15.30
2019-02-19T23:00:49.302Z,13.87
2019-02-19T23:03:19.307Z,14.88
2019-02-19T23:05:47.573Z,14.57
2019-02-19T23:08:15.889Z,14.42
2019-02-19T23:10:44.402Z,13.84
2019-02-19T23:13:12.681Z,13.32
2019-02-19T23:15:41.075Z,13.07
2019-02-19T23:18:09.366Z,13.93
2019-02-19T23:20:37.666Z,14.14
2019-02-19T23:23:05.974Z,15.05
2019-02-19T23:25:34.337Z,15.08
2019-02-19T23:28:02.776Z,14.04
2019-02-19T23:30:31.066Z,13.37
2019-02-19T23:32:59.374Z,14.15
2019-02-19T23:35:29.322Z,14.16
2019-02-19T23:37:57.713Z,13.80
2019-02-19T23:40:25.982Z,12.83
2019-02-19T23:42:54.244Z,13.20
2019-02-19T23:45:22.529Z,14.15
2019-02-19T23:47:50.836Z,12.99
2019-02-19T23:50:19.146Z,13.59
2019-02-19T23:52:47.415Z,13.96
2019-02-19T23:55:15.718Z,13.82
2019-02-19T23:57:44.024Z,13.32
